createdAt,value
2018-07-26T00:03:51.468Z,24.90
2018-07-26T00:08:44.715Z,24.80
2018-07-26T00:28:17.449Z,24.40
2018-07-26T00:33:10.682Z,24.40
2018-07-26T00:47:50.379Z,24.20
2018-07-26T00:52:43.610Z,24.10
2018-07-26T00:57:36.866Z,24.00
2018-07-26T01:07:23.322Z,24.00
2018-07-26T01:12:16.570Z,24.00
2018-07-26T01:17:09.791Z,23.90
2018-07-26T01:22:03.133Z,23.80
2018-07-26T01:31:53.044Z,23.60
2018-07-26T01:36:46.298Z,23.50
2018-07-26T01:41:39.534Z,23.50
2018-07-26T01:46:32.788Z,23.60
2018-07-26T01:51:26.079Z,23.50
2018-07-26T01:56:19.374Z,23.60
2018-07-26T02:01:12.990Z,23.50
2018-07-26T02:06:06.474Z,23.50
2018-07-26T02:11:00.296Z,23.30
2018-07-26T02:30:33.344Z,23.00
2018-07-26T02:35:26.574Z,23.10
2018-07-26T02:40:19.884Z,23.10
2018-07-26T02:45:13.134Z,23.00
2018-07-26T02:50:06.573Z,23.00
2018-07-26T02:55:00.057Z,23.00
2018-07-26T03:04:46.458Z,22.90
2018-07-26T03:09:39.724Z,22.90
2018-07-26T03:14:38.644Z,22.90
2018-07-26T03:19:31.863Z,23.00
2018-07-26T03:29:18.273Z,23.00
2018-07-26T03:34:11.512Z,22.90
2018-07-26T03:39:07.945Z,22.70
2018-07-26T03:48:54.320Z,22.50
2018-07-26T03:53:47.686Z,22.40
2018-07-26T03:58:41.898Z,22.40
2018-07-26T04:03:35.157Z,22.40
2018-07-26T04:08:28.372Z,22.30
2018-07-26T04:13:21.606Z,22.30
2018-07-26T04:18:14.851Z,22.30
2018-07-26T04:32:55.198Z,22.30
2018-07-26T04:37:48.436Z,22.30
2018-07-26T04:42:41.691Z,22.30
2018-07-26T04:47:35.066Z,22.50
2018-07-26T04:52:28.435Z,22.60
2018-07-26T04:57:21.697Z,22.70
2018-07-26T05:02:15.051Z,22.90
2018-07-26T05:12:01.539Z,23.50
2018-07-26T05:16:54.809Z,24.40
2018-07-26T05:21:48.065Z,25.90
2018-07-26T05:26:41.375Z,27.30
2018-07-26T05:31:34.665Z,27.90
2018-07-26T05:46:14.266Z,29.60
2018-07-26T05:51:07.552Z,28.60
2018-07-26T05:56:00.914Z,28.20
2018-07-26T06:00:55.027Z,28.40
2018-07-26T06:05:48.301Z,27.70
2018-07-26T06:10:41.571Z,27.40
2018-07-26T06:15:34.833Z,27.70
2018-07-26T06:20:28.162Z,28.00
2018-07-26T06:30:14.606Z,29.00
2018-07-26T06:40:02.008Z,30.10
2018-07-26T06:44:55.286Z,31.20
2018-07-26T06:49:48.529Z,31.30
2018-07-26T06:59:35.025Z,33.70
2018-07-26T07:04:28.268Z,34.20
2018-07-26T07:09:21.622Z,34.70
2018-07-26T07:14:14.978Z,34.90
2018-07-26T07:24:01.765Z,37.00
2018-07-26T07:33:48.390Z,37.50
2018-07-26T07:38:42.153Z,38.90
2018-07-26T07:43:35.631Z,39.90
2018-07-26T07:48:28.911Z,41.00
2018-07-26T07:53:22.184Z,40.80
2018-07-26T07:58:15.440Z,39.20
2018-07-26T08:03:08.710Z,40.30
2018-07-26T08:08:02.073Z,40.70
2018-07-26T08:12:55.311Z,39.20
2018-07-26T08:17:48.579Z,38.50
2018-07-26T08:22:41.862Z,39.80
2018-07-26T08:27:35.148Z,38.10
2018-07-26T08:32:29.050Z,38.30
2018-07-26T08:42:15.568Z,41.20
2018-07-26T08:47:08.840Z,41.60
2018-07-26T08:52:02.177Z,41.40
2018-07-26T09:01:48.700Z,41.90
2018-07-26T09:16:28.371Z,42.00
2018-07-26T09:21:21.631Z,41.30
2018-07-26T09:26:14.923Z,42.40
2018-07-26T09:31:08.164Z,41.90
2018-07-26T09:36:01.444Z,42.50
2018-07-26T09:40:54.684Z,43.40
2018-07-26T09:45:47.939Z,41.40
2018-07-26T09:50:41.169Z,40.90
2018-07-26T09:55:34.445Z,40.30
2018-07-26T10:00:33.191Z,40.00
2018-07-26T10:05:26.469Z,40.10
2018-07-26T10:10:19.796Z,41.50
2018-07-26T10:15:13.073Z,41.50
2018-07-26T10:20:06.571Z,41.60
2018-07-26T10:25:00.076Z,41.50
2018-07-26T10:29:53.416Z,40.80
2018-07-26T10:34:46.660Z,38.60
2018-07-26T10:44:33.960Z,38.80
2018-07-26T10:49:27.185Z,38.70
2018-07-26T10:54:20.445Z,38.00
2018-07-26T10:59:13.715Z,37.00
2018-07-26T11:04:06.981Z,37.40
2018-07-26T11:09:00.245Z,37.50
2018-07-26T11:13:53.532Z,36.70
2018-07-26T11:18:46.783Z,36.80
2018-07-26T11:23:40.026Z,36.30
2018-07-26T11:33:26.488Z,36.00
2018-07-26T11:38:19.777Z,36.10
2018-07-26T11:43:13.027Z,37.20
2018-07-26T11:52:59.429Z,37.30
2018-07-26T11:57:53.130Z,37.70
2018-07-26T12:02:46.466Z,36.90
2018-07-26T12:07:39.744Z,36.70
2018-07-26T12:12:33.099Z,36.70
2018-07-26T12:17:26.384Z,37.10
2018-07-26T12:22:19.639Z,37.80
2018-07-26T12:32:06.274Z,36.90
2018-07-26T12:36:59.538Z,36.70
2018-07-26T12:41:52.878Z,37.30
2018-07-26T12:46:46.144Z,37.50
2018-07-26T12:51:39.407Z,37.70
2018-07-26T12:56:32.747Z,37.60
2018-07-26T13:01:26.462Z,37.10
2018-07-26T13:06:19.783Z,37.10
2018-07-26T13:11:13.042Z,37.30
2018-07-26T13:16:06.522Z,37.00
2018-07-26T13:20:59.818Z,36.60
2018-07-26T13:25:53.064Z,36.80
2018-07-26T13:30:46.354Z,36.80
2018-07-26T13:35:39.608Z,36.50
2018-07-26T13:40:32.878Z,36.60
2018-07-26T13:45:26.140Z,37.20
2018-07-26T13:50:19.808Z,37.50
2018-07-26T13:55:13.068Z,38.30
2018-07-26T14:00:06.452Z,38.60
2018-07-26T14:04:59.704Z,37.70
2018-07-26T14:09:53.024Z,38.30
2018-07-26T14:14:46.307Z,38.30
2018-07-26T14:19:39.563Z,38.40
2018-07-26T14:29:26.049Z,37.90
2018-07-26T14:34:19.254Z,38.90
2018-07-26T14:39:13.006Z,38.70
2018-07-26T14:44:06.684Z,38.80
2018-07-26T14:48:59.978Z,38.90
2018-07-26T14:53:53.216Z,37.60
2018-07-26T15:08:32.835Z,37.90
2018-07-26T15:18:19.922Z,38.40
2018-07-26T15:23:13.229Z,38.00
2018-07-26T15:28:06.546Z,38.00
2018-07-26T15:37:53.019Z,38.50
2018-07-26T15:42:46.339Z,39.30
2018-07-26T15:47:39.637Z,39.90
2018-07-26T15:52:32.935Z,38.70
2018-07-26T15:57:26.224Z,38.60
2018-07-26T16:02:19.541Z,38.90
2018-07-26T16:07:12.821Z,38.60
2018-07-26T16:12:06.098Z,38.30
2018-07-26T16:16:59.380Z,37.50
2018-07-26T16:21:52.624Z,37.30
2018-07-26T16:26:45.881Z,36.90
2018-07-26T16:31:39.170Z,35.00
2018-07-26T16:36:32.440Z,35.70
2018-07-26T16:41:25.698Z,34.90
2018-07-26T16:46:18.987Z,34.70
2018-07-26T16:51:12.256Z,34.60
2018-07-26T16:56:05.641Z,34.60
2018-07-26T17:00:58.934Z,34.60
2018-07-26T17:05:52.305Z,34.30
2018-07-26T17:10:45.722Z,34.20
2018-07-26T17:20:32.176Z,34.00
2018-07-26T17:30:19.332Z,33.70
2018-07-26T17:35:12.607Z,33.50
2018-07-26T17:40:06.325Z,33.40
2018-07-26T17:44:59.632Z,33.30
2018-07-26T17:49:52.882Z,33.20
2018-07-26T17:54:47.120Z,33.00
2018-07-26T17:59:40.396Z,32.90
2018-07-26T18:04:33.732Z,32.80
2018-07-26T18:09:27.038Z,32.70
2018-07-26T18:14:20.324Z,32.80
2018-07-26T18:19:13.578Z,32.70
2018-07-26T18:24:07.193Z,32.50
2018-07-26T18:29:00.496Z,32.50
2018-07-26T18:38:47.022Z,32.50
2018-07-26T18:43:40.359Z,32.40
2018-07-26T18:48:33.587Z,32.20
2018-07-26T18:58:20.115Z,31.90
2018-07-26T19:03:13.404Z,31.80
2018-07-26T19:08:06.971Z,31.70
2018-07-26T19:13:00.862Z,31.70
2018-07-26T19:17:54.144Z,31.40
2018-07-26T19:22:47.434Z,31.30
2018-07-26T19:32:33.925Z,30.80
2018-07-26T19:37:27.181Z,30.60
2018-07-26T19:42:20.479Z,30.40
2018-07-26T19:47:13.790Z,30.20
2018-07-26T20:01:54.071Z,30.10
2018-07-26T20:06:47.604Z,29.90
2018-07-26T20:11:40.888Z,29.70
2018-07-26T20:16:34.182Z,29.60
2018-07-26T20:26:20.674Z,29.50
2018-07-26T20:31:14.014Z,29.50
2018-07-26T20:36:07.320Z,29.30
2018-07-26T20:41:00.595Z,29.30
2018-07-26T20:45:53.871Z,29.20
2018-07-26T20:50:47.253Z,29.20
2018-07-26T21:00:33.679Z,28.80
2018-07-26T21:05:27.070Z,28.70
2018-07-26T21:10:20.265Z,28.60
2018-07-26T21:15:13.538Z,28.50
2018-07-26T21:20:06.860Z,28.40
2018-07-26T21:29:53.830Z,28.20
2018-07-26T21:34:47.314Z,28.10
2018-07-26T21:39:40.660Z,28.00
2018-07-26T21:44:33.987Z,27.90
2018-07-26T21:49:27.237Z,27.70
2018-07-26T21:54:20.560Z,27.60
2018-07-26T21:59:13.794Z,27.50
2018-07-26T22:04:07.063Z,27.50
2018-07-26T22:09:00.384Z,27.40
2018-07-26T22:13:53.710Z,27.40
2018-07-26T22:18:46.976Z,27.20
2018-07-26T22:28:33.493Z,27.00
2018-07-26T22:33:26.754Z,27.10
2018-07-26T22:38:20.064Z,27.20
2018-07-26T22:43:13.348Z,27.30
2018-07-26T22:53:00.087Z,27.30
2018-07-26T22:57:53.332Z,27.40
2018-07-26T23:02:46.632Z,27.30
2018-07-26T23:07:39.924Z,27.30
2018-07-26T23:17:26.380Z,27.10
2018-07-26T23:27:13.941Z,27.00
2018-07-26T23:32:07.270Z,26.90
2018-07-26T23:37:00.546Z,26.80
2018-07-26T23:41:53.798Z,25.70
2018-07-26T23:46:47.096Z,26.60
2018-07-26T23:51:40.420Z,26.50
2018-07-26T23:56:33.687Z,26.40
